sensor_id;sensor_type;location;lat;lon;timestamp;P1;durP1;ratioP1;P2;durP2;ratioP2
3081;SDS011;1551;51.046;7.010;2022-09-13T00:01:54;4.20;;;3.70;;
3081;SDS011;1551;51.046;7.010;2022-09-13T00:04:43;4.20;;;3.80;;
3081;SDS011;1551;51.046;7.010;2022-09-13T00:07:32;6.10;;;3.80;;
3081;SDS011;1551;51.046;7.010;2022-09-13T00:10:21;4.90;;;3.80;;
3081;SDS011;1551;51.046;7.010;2022-09-13T00:13:11;5.40;;;3.90;;
3081;SDS011;1551;51.046;7.010;2022-09-13T00:16:01;3.90;;;3.50;;
3081;SDS011;1551;51.046;7.010;2022-09-13T00:18:53;4.72;;;3.40;;
3081;SDS011;1551;51.046;7.010;2022-09-13T00:21:42;6.47;;;3.90;;
3081;SDS011;1551;51.046;7.010;2022-09-13T00:24:31;4.68;;;3.42;;
3081;SDS011;1551;51.046;7.010;2022-09-13T00:27:21;4.35;;;3.67;;
3081;SDS011;1551;51.046;7.010;2022-09-13T00:30:11;5.03;;;3.53;;
3081;SDS011;1551;51.046;7.010;2022-09-13T00:33:00;4.38;;;3.60;;
3081;SDS011;1551;51.046;7.010;2022-09-13T00:35:52;4.15;;;3.75;;
3081;SDS011;1551;51.046;7.010;2022-09-13T00:38:41;4.20;;;3.80;;
3081;SDS011;1551;51.046;7.010;2022-09-13T00:41:31;5.03;;;3.60;;
3081;SDS011;1551;51.046;7.010;2022-09-13T00:47:56;3.40;;;3.10;;
3081;SDS011;1551;51.046;7.010;2022-09-13T00:50:48;5.00;;;4.00;;
3081;SDS011;1551;51.046;7.010;2022-09-13T00:53:42;3.13;;;2.83;;
3081;SDS011;1551;51.046;7.010;2022-09-13T00:56:42;7.45;;;3.97;;
3081;SDS011;1551;51.046;7.010;2022-09-13T01:03:01;3.75;;;3.40;;
3081;SDS011;1551;51.046;7.010;2022-09-13T01:05:55;4.27;;;3.57;;
3081;SDS011;1551;51.046;7.010;2022-09-13T01:08:50;5.28;;;3.90;;
3081;SDS011;1551;51.046;7.010;2022-09-13T01:11:44;3.90;;;3.20;;
3081;SDS011;1551;51.046;7.010;2022-09-13T01:14:34;4.20;;;3.42;;
3081;SDS011;1551;51.046;7.010;2022-09-13T01:17:28;4.37;;;3.60;;
3081;SDS011;1551;51.046;7.010;2022-09-13T01:20:20;4.90;;;3.88;;
3081;SDS011;1551;51.046;7.010;2022-09-13T01:33:20;4.57;;;3.70;;
3081;SDS011;1551;51.046;7.010;2022-09-13T01:42:52;4.20;;;3.40;;
3081;SDS011;1551;51.046;7.010;2022-09-13T01:52:00;5.10;;;3.50;;
3081;SDS011;1551;51.046;7.010;2022-09-13T02:04:11;5.65;;;4.00;;
3081;SDS011;1551;51.046;7.010;2022-09-13T02:07:09;4.30;;;3.47;;
3081;SDS011;1551;51.046;7.010;2022-09-13T02:10:11;5.30;;;3.80;;
3081;SDS011;1551;51.046;7.010;2022-09-13T02:13:06;4.38;;;3.67;;
3081;SDS011;1551;51.046;7.010;2022-09-13T02:16:01;4.40;;;4.00;;
3081;SDS011;1551;51.046;7.010;2022-09-13T02:18:58;5.22;;;4.00;;
3081;SDS011;1551;51.046;7.010;2022-09-13T02:21:53;4.80;;;3.40;;
3081;SDS011;1551;51.046;7.010;2022-09-13T02:24:47;4.68;;;3.75;;
3081;SDS011;1551;51.046;7.010;2022-09-13T02:27:39;4.88;;;3.33;;
3081;SDS011;1551;51.046;7.010;2022-09-13T02:30:33;4.60;;;3.40;;
3081;SDS011;1551;51.046;7.010;2022-09-13T02:33:29;4.70;;;3.47;;
3081;SDS011;1551;51.046;7.010;2022-09-13T02:36:23;4.45;;;4.05;;
3081;SDS011;1551;51.046;7.010;2022-09-13T02:39:18;4.43;;;3.93;;
3081;SDS011;1551;51.046;7.010;2022-09-13T02:42:14;4.45;;;3.70;;
3081;SDS011;1551;51.046;7.010;2022-09-13T02:45:07;4.55;;;3.67;;
3081;SDS011;1551;51.046;7.010;2022-09-13T02:48:01;5.13;;;4.07;;
3081;SDS011;1551;51.046;7.010;2022-09-13T02:51:02;5.90;;;3.60;;
3081;SDS011;1551;51.046;7.010;2022-09-13T02:57:14;3.80;;;3.40;;
3081;SDS011;1551;51.046;7.010;2022-09-13T03:00:17;5.25;;;3.40;;
3081;SDS011;1551;51.046;7.010;2022-09-13T03:03:08;4.25;;;3.60;;
3081;SDS011;1551;51.046;7.010;2022-09-13T03:06:00;4.10;;;3.00;;
3081;SDS011;1551;51.046;7.010;2022-09-13T03:08:50;4.03;;;3.60;;
3081;SDS011;1551;51.046;7.010;2022-09-13T03:30:14;4.38;;;3.63;;
3081;SDS011;1551;51.046;7.010;2022-09-13T03:45:30;4.77;;;3.10;;
3081;SDS011;1551;51.046;7.010;2022-09-13T03:48:23;3.50;;;3.13;;
3081;SDS011;1551;51.046;7.010;2022-09-13T03:51:12;4.10;;;3.03;;
3081;SDS011;1551;51.046;7.010;2022-09-13T03:54:04;4.20;;;3.50;;
3081;SDS011;1551;51.046;7.010;2022-09-13T03:57:11;3.75;;;3.35;;
3081;SDS011;1551;51.046;7.010;2022-09-13T04:00:00;3.70;;;3.20;;
3081;SDS011;1551;51.046;7.010;2022-09-13T04:02:49;4.20;;;3.47;;
3081;SDS011;1551;51.046;7.010;2022-09-13T04:05:38;4.30;;;3.50;;
3081;SDS011;1551;51.046;7.010;2022-09-13T04:08:28;4.70;;;3.28;;
3081;SDS011;1551;51.046;7.010;2022-09-13T04:11:17;5.30;;;3.38;;
3081;SDS011;1551;51.046;7.010;2022-09-13T04:14:08;4.93;;;3.70;;
3081;SDS011;1551;51.046;7.010;2022-09-13T04:16:58;5.30;;;3.70;;
3081;SDS011;1551;51.046;7.010;2022-09-13T04:19:47;3.53;;;2.85;;
3081;SDS011;1551;51.046;7.010;2022-09-13T04:22:36;3.97;;;3.45;;
3081;SDS011;1551;51.046;7.010;2022-09-13T04:25:25;3.80;;;3.17;;
3081;SDS011;1551;51.046;7.010;2022-09-13T04:28:15;5.72;;;4.03;;
3081;SDS011;1551;51.046;7.010;2022-09-13T04:31:05;4.70;;;3.42;;
3081;SDS011;1551;51.046;7.010;2022-09-13T04:33:54;4.50;;;3.25;;
3081;SDS011;1551;51.046;7.010;2022-09-13T04:36:43;4.33;;;3.13;;
3081;SDS011;1551;51.046;7.010;2022-09-13T04:39:33;3.88;;;3.28;;
3081;SDS011;1551;51.046;7.010;2022-09-13T04:42:22;4.20;;;3.25;;
3081;SDS011;1551;51.046;7.010;2022-09-13T04:45:11;3.97;;;3.22;;
3081;SDS011;1551;51.046;7.010;2022-09-13T04:48:01;3.88;;;3.50;;
3081;SDS011;1551;51.046;7.010;2022-09-13T04:50:50;3.90;;;3.30;;
3081;SDS011;1551;51.046;7.010;2022-09-13T04:53:39;4.50;;;3.47;;
3081;SDS011;1551;51.046;7.010;2022-09-13T04:56:28;4.03;;;3.50;;
3081;SDS011;1551;51.046;7.010;2022-09-13T04:59:18;3.83;;;3.42;;
3081;SDS011;1551;51.046;7.010;2022-09-13T05:02:08;4.00;;;3.50;;
3081;SDS011;1551;51.046;7.010;2022-09-13T05:04:57;4.10;;;3.50;;
3081;SDS011;1551;51.046;7.010;2022-09-13T05:07:48;4.57;;;3.50;;
3081;SDS011;1551;51.046;7.010;2022-09-13T05:10:38;5.35;;;3.33;;
3081;SDS011;1551;51.046;7.010;2022-09-13T05:13:27;3.90;;;3.50;;
3081;SDS011;1551;51.046;7.010;2022-09-13T05:16:17;5.10;;;3.33;;
3081;SDS011;1551;51.046;7.010;2022-09-13T05:19:06;4.10;;;3.70;;
3081;SDS011;1551;51.046;7.010;2022-09-13T05:21:55;6.25;;;3.30;;
3081;SDS011;1551;51.046;7.010;2022-09-13T05:24:44;4.72;;;3.70;;
3081;SDS011;1551;51.046;7.010;2022-09-13T05:27:33;6.18;;;3.85;;
3081;SDS011;1551;51.046;7.010;2022-09-13T05:30:22;4.22;;;3.72;;
3081;SDS011;1551;51.046;7.010;2022-09-13T05:33:11;4.70;;;3.85;;
3081;SDS011;1551;51.046;7.010;2022-09-13T05:36:00;5.60;;;4.30;;
3081;SDS011;1551;51.046;7.010;2022-09-13T05:38:50;6.03;;;3.83;;
3081;SDS011;1551;51.046;7.010;2022-09-13T05:41:40;4.78;;;3.90;;
3081;SDS011;1551;51.046;7.010;2022-09-13T05:44:29;7.00;;;4.20;;
3081;SDS011;1551;51.046;7.010;2022-09-13T05:47:18;6.60;;;3.17;;
3081;SDS011;1551;51.046;7.010;2022-09-13T05:50:07;5.40;;;3.50;;
3081;SDS011;1551;51.046;7.010;2022-09-13T05:52:58;5.13;;;3.17;;
3081;SDS011;1551;51.046;7.010;2022-09-13T05:55:47;4.87;;;3.50;;
3081;SDS011;1551;51.046;7.010;2022-09-13T05:58:43;5.00;;;3.40;;
3081;SDS011;1551;51.046;7.010;2022-09-13T06:01:33;4.72;;;3.20;;
3081;SDS011;1551;51.046;7.010;2022-09-13T06:04:22;4.20;;;3.10;;
3081;SDS011;1551;51.046;7.010;2022-09-13T06:07:11;4.70;;;3.50;;
3081;SDS011;1551;51.046;7.010;2022-09-13T06:10:00;3.28;;;2.97;;
3081;SDS011;1551;51.046;7.010;2022-09-13T06:12:50;5.35;;;3.35;;
3081;SDS011;1551;51.046;7.010;2022-09-13T06:15:39;3.50;;;3.20;;
3081;SDS011;1551;51.046;7.010;2022-09-13T06:18:28;5.60;;;3.40;;
3081;SDS011;1551;51.046;7.010;2022-09-13T06:21:18;4.07;;;3.08;;
3081;SDS011;1551;51.046;7.010;2022-09-13T06:24:09;4.63;;;3.47;;
3081;SDS011;1551;51.046;7.010;2022-09-13T06:26:58;4.50;;;2.80;;
3081;SDS011;1551;51.046;7.010;2022-09-13T06:29:47;4.75;;;3.50;;
3081;SDS011;1551;51.046;7.010;2022-09-13T06:32:36;4.00;;;3.17;;
3081;SDS011;1551;51.046;7.010;2022-09-13T06:35:25;5.72;;;3.17;;
3081;SDS011;1551;51.046;7.010;2022-09-13T06:38:15;5.60;;;2.95;;
3081;SDS011;1551;51.046;7.010;2022-09-13T06:41:05;4.03;;;3.58;;
3081;SDS011;1551;51.046;7.010;2022-09-13T06:43:57;3.50;;;2.90;;
3081;SDS011;1551;51.046;7.010;2022-09-13T06:46:47;3.83;;;2.97;;
3081;SDS011;1551;51.046;7.010;2022-09-13T06:49:36;3.55;;;3.13;;
3081;SDS011;1551;51.046;7.010;2022-09-13T06:52:25;4.22;;;3.10;;
3081;SDS011;1551;51.046;7.010;2022-09-13T06:55:15;4.60;;;3.40;;
3081;SDS011;1551;51.046;7.010;2022-09-13T06:58:04;4.00;;;3.10;;
3081;SDS011;1551;51.046;7.010;2022-09-13T07:00:53;3.90;;;3.03;;
3081;SDS011;1551;51.046;7.010;2022-09-13T07:03:43;4.45;;;2.95;;
3081;SDS011;1551;51.046;7.010;2022-09-13T07:06:36;3.33;;;3.03;;
3081;SDS011;1551;51.046;7.010;2022-09-13T07:09:27;5.40;;;3.35;;
3081;SDS011;1551;51.046;7.010;2022-09-13T07:12:16;4.00;;;3.22;;
3081;SDS011;1551;51.046;7.010;2022-09-13T07:15:05;5.50;;;3.90;;
3081;SDS011;1551;51.046;7.010;2022-09-13T07:17:55;4.43;;;3.20;;
3081;SDS011;1551;51.046;7.010;2022-09-13T07:20:44;5.07;;;3.10;;
3081;SDS011;1551;51.046;7.010;2022-09-13T07:23:34;5.32;;;3.20;;
3081;SDS011;1551;51.046;7.010;2022-09-13T07:26:25;5.90;;;3.20;;
3081;SDS011;1551;51.046;7.010;2022-09-13T07:29:19;4.50;;;3.10;;
3081;SDS011;1551;51.046;7.010;2022-09-13T07:32:11;3.85;;;3.25;;
3081;SDS011;1551;51.046;7.010;2022-09-13T07:35:00;3.22;;;2.65;;
3081;SDS011;1551;51.046;7.010;2022-09-13T07:37:49;3.40;;;3.00;;
3081;SDS011;1551;51.046;7.010;2022-09-13T07:40:38;5.00;;;2.78;;
3081;SDS011;1551;51.046;7.010;2022-09-13T07:43:27;3.75;;;2.70;;
3081;SDS011;1551;51.046;7.010;2022-09-13T07:46:18;3.50;;;2.90;;
3081;SDS011;1551;51.046;7.010;2022-09-13T07:49:09;5.60;;;3.00;;
3081;SDS011;1551;51.046;7.010;2022-09-13T07:52:00;4.38;;;2.90;;
3081;SDS011;1551;51.046;7.010;2022-09-13T07:54:49;3.53;;;3.23;;
3081;SDS011;1551;51.046;7.010;2022-09-13T07:57:38;3.57;;;2.60;;
3081;SDS011;1551;51.046;7.010;2022-09-13T08:00:27;4.40;;;2.90;;
3081;SDS011;1551;51.046;7.010;2022-09-13T08:03:17;3.60;;;2.85;;
3081;SDS011;1551;51.046;7.010;2022-09-13T08:06:06;3.20;;;2.90;;
3081;SDS011;1551;51.046;7.010;2022-09-13T08:08:55;4.70;;;3.08;;
3081;SDS011;1551;51.046;7.010;2022-09-13T08:11:46;4.25;;;2.80;;
3081;SDS011;1551;51.046;7.010;2022-09-13T08:14:40;4.10;;;2.80;;
3081;SDS011;1551;51.046;7.010;2022-09-13T08:17:29;3.90;;;2.90;;
3081;SDS011;1551;51.046;7.010;2022-09-13T08:20:18;3.50;;;3.10;;
3081;SDS011;1551;51.046;7.010;2022-09-13T08:23:09;5.70;;;3.03;;
3081;SDS011;1551;51.046;7.010;2022-09-13T08:26:00;3.95;;;2.42;;
3081;SDS011;1551;51.046;7.010;2022-09-13T08:28:54;3.70;;;3.20;;
3081;SDS011;1551;51.046;7.010;2022-09-13T08:31:47;3.17;;;2.60;;
3081;SDS011;1551;51.046;7.010;2022-09-13T08:34:36;3.58;;;2.90;;
3081;SDS011;1551;51.046;7.010;2022-09-13T08:37:25;4.18;;;2.80;;
3081;SDS011;1551;51.046;7.010;2022-09-13T08:40:14;3.83;;;3.00;;
3081;SDS011;1551;51.046;7.010;2022-09-13T08:43:11;3.83;;;3.03;;
3081;SDS011;1551;51.046;7.010;2022-09-13T08:46:53;4.00;;;3.00;;
3081;SDS011;1551;51.046;7.010;2022-09-13T08:49:38;4.00;;;3.37;;
3081;SDS011;1551;51.046;7.010;2022-09-13T08:52:32;3.38;;;2.72;;
3081;SDS011;1551;51.046;7.010;2022-09-13T08:55:38;3.83;;;3.00;;
3081;SDS011;1551;51.046;7.010;2022-09-13T09:08:00;4.50;;;2.80;;
3081;SDS011;1551;51.046;7.010;2022-09-13T09:11:05;3.78;;;2.90;;
3081;SDS011;1551;51.046;7.010;2022-09-13T09:14:03;4.20;;;3.10;;
3081;SDS011;1551;51.046;7.010;2022-09-13T09:17:05;5.40;;;2.92;;
3081;SDS011;1551;51.046;7.010;2022-09-13T09:20:36;4.30;;;2.90;;
3081;SDS011;1551;51.046;7.010;2022-09-13T09:26:28;5.05;;;2.70;;
3081;SDS011;1551;51.046;7.010;2022-09-13T09:29:23;4.68;;;2.28;;
3081;SDS011;1551;51.046;7.010;2022-09-13T09:32:19;5.88;;;3.10;;
3081;SDS011;1551;51.046;7.010;2022-09-13T09:35:20;5.85;;;3.10;;
3081;SDS011;1551;51.046;7.010;2022-09-13T09:38:40;4.85;;;3.05;;
3081;SDS011;1551;51.046;7.010;2022-09-13T09:41:31;4.70;;;2.70;;
3081;SDS011;1551;51.046;7.010;2022-09-13T09:44:24;4.60;;;3.23;;
3081;SDS011;1551;51.046;7.010;2022-09-13T09:47:17;3.30;;;2.40;;
3081;SDS011;1551;51.046;7.010;2022-09-13T09:50:14;3.03;;;2.50;;
3081;SDS011;1551;51.046;7.010;2022-09-13T09:53:16;4.03;;;3.10;;
3081;SDS011;1551;51.046;7.010;2022-09-13T09:59:10;4.47;;;2.97;;
3081;SDS011;1551;51.046;7.010;2022-09-13T10:02:15;4.38;;;2.80;;
3081;SDS011;1551;51.046;7.010;2022-09-13T10:05:06;4.35;;;3.30;;
3081;SDS011;1551;51.046;7.010;2022-09-13T10:07:56;3.90;;;3.00;;
3081;SDS011;1551;51.046;7.010;2022-09-13T10:10:52;5.95;;;2.95;;
3081;SDS011;1551;51.046;7.010;2022-09-13T10:13:59;4.03;;;2.85;;
3081;SDS011;1551;51.046;7.010;2022-09-13T10:16:49;4.18;;;2.80;;
3081;SDS011;1551;51.046;7.010;2022-09-13T10:19:51;4.13;;;2.80;;
3081;SDS011;1551;51.046;7.010;2022-09-13T10:23:08;3.45;;;2.65;;
3081;SDS011;1551;51.046;7.010;2022-09-13T10:26:09;4.47;;;3.20;;
3081;SDS011;1551;51.046;7.010;2022-09-13T10:29:07;4.50;;;2.80;;
3081;SDS011;1551;51.046;7.010;2022-09-13T10:32:06;2.92;;;2.22;;
3081;SDS011;1551;51.046;7.010;2022-09-13T10:35:01;4.30;;;2.90;;
3081;SDS011;1551;51.046;7.010;2022-09-13T10:37:56;4.03;;;2.58;;
3081;SDS011;1551;51.046;7.010;2022-09-13T10:40:45;4.30;;;2.50;;
3081;SDS011;1551;51.046;7.010;2022-09-13T10:43:36;4.10;;;2.70;;
3081;SDS011;1551;51.046;7.010;2022-09-13T10:46:27;4.18;;;2.60;;
3081;SDS011;1551;51.046;7.010;2022-09-13T10:49:36;5.72;;;2.80;;
3081;SDS011;1551;51.046;7.010;2022-09-13T10:52:46;3.30;;;2.70;;
3081;SDS011;1551;51.046;7.010;2022-09-13T10:55:37;3.70;;;2.88;;
3081;SDS011;1551;51.046;7.010;2022-09-13T10:58:28;3.42;;;2.55;;
3081;SDS011;1551;51.046;7.010;2022-09-13T11:11:00;5.30;;;2.30;;
3081;SDS011;1551;51.046;7.010;2022-09-13T11:20:05;3.67;;;1.90;;
3081;SDS011;1551;51.046;7.010;2022-09-13T11:23:05;2.78;;;1.88;;
3081;SDS011;1551;51.046;7.010;2022-09-13T11:41:39;2.97;;;1.90;;
3081;SDS011;1551;51.046;7.010;2022-09-13T11:47:56;3.33;;;1.80;;
3081;SDS011;1551;51.046;7.010;2022-09-13T11:54:22;3.28;;;2.03;;
3081;SDS011;1551;51.046;7.010;2022-09-13T11:58:04;3.47;;;2.47;;
3081;SDS011;1551;51.046;7.010;2022-09-13T12:00:43;2.50;;;2.08;;
3081;SDS011;1551;51.046;7.010;2022-09-13T12:03:57;2.80;;;1.80;;
3081;SDS011;1551;51.046;7.010;2022-09-13T12:06:53;2.70;;;1.85;;
3081;SDS011;1551;51.046;7.010;2022-09-13T12:09:51;3.33;;;2.00;;
3081;SDS011;1551;51.046;7.010;2022-09-13T12:12:44;3.13;;;1.90;;
3081;SDS011;1551;51.046;7.010;2022-09-13T12:15:39;4.10;;;1.80;;
3081;SDS011;1551;51.046;7.010;2022-09-13T12:18:33;6.00;;;2.20;;
3081;SDS011;1551;51.046;7.010;2022-09-13T12:21:29;3.63;;;2.00;;
3081;SDS011;1551;51.046;7.010;2022-09-13T12:24:35;4.78;;;2.20;;
3081;SDS011;1551;51.046;7.010;2022-09-13T12:30:38;4.65;;;2.10;;
3081;SDS011;1551;51.046;7.010;2022-09-13T12:33:36;3.55;;;1.75;;
3081;SDS011;1551;51.046;7.010;2022-09-13T12:39:42;3.05;;;1.50;;
3081;SDS011;1551;51.046;7.010;2022-09-13T12:46:01;5.47;;;1.80;;
3081;SDS011;1551;51.046;7.010;2022-09-13T12:55:13;2.30;;;1.70;;
3081;SDS011;1551;51.046;7.010;2022-09-13T12:58:09;2.53;;;1.70;;
3081;SDS011;1551;51.046;7.010;2022-09-13T13:01:23;3.00;;;1.70;;
3081;SDS011;1551;51.046;7.010;2022-09-13T13:04:15;2.28;;;1.50;;
3081;SDS011;1551;51.046;7.010;2022-09-13T13:07:17;3.27;;;1.67;;
3081;SDS011;1551;51.046;7.010;2022-09-13T13:10:30;2.90;;;2.03;;
3081;SDS011;1551;51.046;7.010;2022-09-13T13:13:24;2.80;;;1.60;;
3081;SDS011;1551;51.046;7.010;2022-09-13T13:19:31;2.40;;;1.63;;
3081;SDS011;1551;51.046;7.010;2022-09-13T13:25:33;3.08;;;2.35;;
3081;SDS011;1551;51.046;7.010;2022-09-13T13:31:36;3.63;;;2.37;;
3081;SDS011;1551;51.046;7.010;2022-09-13T13:34:27;3.10;;;1.80;;
3081;SDS011;1551;51.046;7.010;2022-09-13T13:40:10;2.35;;;1.80;;
3081;SDS011;1551;51.046;7.010;2022-09-13T13:43:15;2.10;;;1.30;;
3081;SDS011;1551;51.046;7.010;2022-09-13T13:46:26;4.90;;;1.70;;
3081;SDS011;1551;51.046;7.010;2022-09-13T13:55:27;2.40;;;2.08;;
3081;SDS011;1551;51.046;7.010;2022-09-13T13:58:28;2.20;;;1.75;;
3081;SDS011;1551;51.046;7.010;2022-09-13T14:01:25;3.07;;;1.73;;
3081;SDS011;1551;51.046;7.010;2022-09-13T14:04:37;2.80;;;1.70;;
3081;SDS011;1551;51.046;7.010;2022-09-13T14:11:14;4.20;;;1.70;;
3081;SDS011;1551;51.046;7.010;2022-09-13T14:21:27;4.22;;;1.63;;
3081;SDS011;1551;51.046;7.010;2022-09-13T14:24:19;3.33;;;1.60;;
3081;SDS011;1551;51.046;7.010;2022-09-13T14:27:12;3.80;;;1.73;;
3081;SDS011;1551;51.046;7.010;2022-09-13T14:30:16;3.30;;;1.88;;
3081;SDS011;1551;51.046;7.010;2022-09-13T14:33:15;3.30;;;1.65;;
3081;SDS011;1551;51.046;7.010;2022-09-13T14:36:15;4.80;;;2.00;;
3081;SDS011;1551;51.046;7.010;2022-09-13T14:39:07;3.83;;;1.70;;
3081;SDS011;1551;51.046;7.010;2022-09-13T14:42:01;2.85;;;1.65;;
3081;SDS011;1551;51.046;7.010;2022-09-13T14:44:59;5.10;;;2.20;;
3081;SDS011;1551;51.046;7.010;2022-09-13T14:47:56;3.13;;;2.08;;
3081;SDS011;1551;51.046;7.010;2022-09-13T14:50:59;3.30;;;1.80;;
3081;SDS011;1551;51.046;7.010;2022-09-13T14:53:56;3.03;;;1.83;;
3081;SDS011;1551;51.046;7.010;2022-09-13T14:56:55;3.30;;;2.05;;
3081;SDS011;1551;51.046;7.010;2022-09-13T14:59:47;2.50;;;1.70;;
3081;SDS011;1551;51.046;7.010;2022-09-13T15:02:41;3.10;;;1.93;;
3081;SDS011;1551;51.046;7.010;2022-09-13T15:05:38;3.70;;;2.60;;
3081;SDS011;1551;51.046;7.010;2022-09-13T15:11:30;5.40;;;1.80;;
3081;SDS011;1551;51.046;7.010;2022-09-13T15:17:23;2.72;;;1.63;;
3081;SDS011;1551;51.046;7.010;2022-09-13T15:20:12;2.90;;;2.00;;
3081;SDS011;1551;51.046;7.010;2022-09-13T15:23:01;3.08;;;1.60;;
3081;SDS011;1551;51.046;7.010;2022-09-13T15:25:52;3.23;;;2.10;;
3081;SDS011;1551;51.046;7.010;2022-09-13T15:28:53;2.70;;;2.30;;
3081;SDS011;1551;51.046;7.010;2022-09-13T15:31:52;2.60;;;2.03;;
3081;SDS011;1551;51.046;7.010;2022-09-13T15:34:47;2.80;;;1.90;;
3081;SDS011;1551;51.046;7.010;2022-09-13T15:37:37;2.40;;;1.75;;
3081;SDS011;1551;51.046;7.010;2022-09-13T15:40:27;4.28;;;1.70;;
3081;SDS011;1551;51.046;7.010;2022-09-13T15:43:17;3.70;;;1.75;;
3081;SDS011;1551;51.046;7.010;2022-09-13T15:46:07;3.20;;;1.90;;
3081;SDS011;1551;51.046;7.010;2022-09-13T15:49:02;3.55;;;1.90;;
3081;SDS011;1551;51.046;7.010;2022-09-13T15:51:54;3.40;;;2.00;;
3081;SDS011;1551;51.046;7.010;2022-09-13T15:54:46;3.83;;;2.40;;
3081;SDS011;1551;51.046;7.010;2022-09-13T15:57:37;5.38;;;2.08;;
3081;SDS011;1551;51.046;7.010;2022-09-13T16:00:26;2.33;;;1.90;;
3081;SDS011;1551;51.046;7.010;2022-09-13T16:03:16;4.20;;;2.00;;
3081;SDS011;1551;51.046;7.010;2022-09-13T16:06:05;3.10;;;2.10;;
3081;SDS011;1551;51.046;7.010;2022-09-13T16:08:56;3.90;;;2.20;;
3081;SDS011;1551;51.046;7.010;2022-09-13T16:11:48;3.13;;;2.28;;
3081;SDS011;1551;51.046;7.010;2022-09-13T16:14:38;3.00;;;2.50;;
3081;SDS011;1551;51.046;7.010;2022-09-13T16:17:27;4.40;;;2.38;;
3081;SDS011;1551;51.046;7.010;2022-09-13T16:20:15;6.88;;;4.47;;
3081;SDS011;1551;51.046;7.010;2022-09-13T16:23:04;7.50;;;3.40;;
3081;SDS011;1551;51.046;7.010;2022-09-13T16:25:54;6.07;;;5.30;;
3081;SDS011;1551;51.046;7.010;2022-09-13T16:28:45;4.97;;;3.70;;
3081;SDS011;1551;51.046;7.010;2022-09-13T16:31:34;6.45;;;2.47;;
3081;SDS011;1551;51.046;7.010;2022-09-13T16:34:23;5.35;;;2.50;;
3081;SDS011;1551;51.046;7.010;2022-09-13T16:37:13;4.05;;;2.65;;
3081;SDS011;1551;51.046;7.010;2022-09-13T16:40:03;4.95;;;2.40;;
3081;SDS011;1551;51.046;7.010;2022-09-13T16:42:54;4.10;;;2.50;;
3081;SDS011;1551;51.046;7.010;2022-09-13T16:45:43;3.15;;;2.50;;
3081;SDS011;1551;51.046;7.010;2022-09-13T16:48:33;3.85;;;2.13;;
3081;SDS011;1551;51.046;7.010;2022-09-13T16:51:22;6.90;;;2.00;;
3081;SDS011;1551;51.046;7.010;2022-09-13T16:54:12;2.85;;;2.40;;
3081;SDS011;1551;51.046;7.010;2022-09-13T16:57:02;3.80;;;2.50;;
3081;SDS011;1551;51.046;7.010;2022-09-13T16:59:53;7.38;;;3.78;;
3081;SDS011;1551;51.046;7.010;2022-09-13T17:02:44;5.97;;;3.53;;
3081;SDS011;1551;51.046;7.010;2022-09-13T17:05:34;4.28;;;3.65;;
3081;SDS011;1551;51.046;7.010;2022-09-13T17:08:23;4.27;;;2.70;;
3081;SDS011;1551;51.046;7.010;2022-09-13T17:11:13;2.60;;;2.40;;
3081;SDS011;1551;51.046;7.010;2022-09-13T17:14:04;4.40;;;2.33;;
3081;SDS011;1551;51.046;7.010;2022-09-13T17:16:55;3.97;;;2.40;;
3081;SDS011;1551;51.046;7.010;2022-09-13T17:19:45;3.70;;;2.42;;
3081;SDS011;1551;51.046;7.010;2022-09-13T17:22:35;3.88;;;2.50;;
3081;SDS011;1551;51.046;7.010;2022-09-13T17:25:24;4.25;;;2.53;;
3081;SDS011;1551;51.046;7.010;2022-09-13T17:28:14;2.97;;;2.30;;
3081;SDS011;1551;51.046;7.010;2022-09-13T17:31:04;2.90;;;2.20;;
3081;SDS011;1551;51.046;7.010;2022-09-13T17:33:54;3.72;;;2.20;;
3081;SDS011;1551;51.046;7.010;2022-09-13T17:36:43;3.08;;;2.40;;
3081;SDS011;1551;51.046;7.010;2022-09-13T17:39:32;4.13;;;2.42;;
3081;SDS011;1551;51.046;7.010;2022-09-13T17:42:22;4.65;;;2.70;;
3081;SDS011;1551;51.046;7.010;2022-09-13T17:45:11;7.72;;;3.60;;
3081;SDS011;1551;51.046;7.010;2022-09-13T17:48:00;5.37;;;3.60;;
3081;SDS011;1551;51.046;7.010;2022-09-13T17:50:49;4.90;;;3.30;;
3081;SDS011;1551;51.046;7.010;2022-09-13T17:53:39;4.25;;;3.40;;
3081;SDS011;1551;51.046;7.010;2022-09-13T17:56:30;4.57;;;3.28;;
3081;SDS011;1551;51.046;7.010;2022-09-13T17:59:27;4.85;;;3.00;;
3081;SDS011;1551;51.046;7.010;2022-09-13T18:02:16;5.95;;;3.13;;
3081;SDS011;1551;51.046;7.010;2022-09-13T18:05:05;3.60;;;2.80;;
3081;SDS011;1551;51.046;7.010;2022-09-13T18:07:54;4.38;;;3.65;;
3081;SDS011;1551;51.046;7.010;2022-09-13T18:10:43;5.20;;;3.33;;
3081;SDS011;1551;51.046;7.010;2022-09-13T18:13:32;8.70;;;7.15;;
3081;SDS011;1551;51.046;7.010;2022-09-13T18:16:25;5.22;;;4.00;;
3081;SDS011;1551;51.046;7.010;2022-09-13T18:19:15;5.40;;;4.32;;
3081;SDS011;1551;51.046;7.010;2022-09-13T18:22:05;4.60;;;3.30;;
3081;SDS011;1551;51.046;7.010;2022-09-13T18:24:57;4.17;;;3.70;;
3081;SDS011;1551;51.046;7.010;2022-09-13T18:27:46;4.43;;;3.90;;
3081;SDS011;1551;51.046;7.010;2022-09-13T18:30:35;5.30;;;3.60;;
3081;SDS011;1551;51.046;7.010;2022-09-13T18:33:24;5.18;;;4.47;;
3081;SDS011;1551;51.046;7.010;2022-09-13T18:36:14;6.23;;;4.10;;
3081;SDS011;1551;51.046;7.010;2022-09-13T18:39:05;8.30;;;4.95;;
3081;SDS011;1551;51.046;7.010;2022-09-13T18:41:56;4.80;;;4.32;;
3081;SDS011;1551;51.046;7.010;2022-09-13T18:44:45;6.13;;;4.43;;
3081;SDS011;1551;51.046;7.010;2022-09-13T18:47:34;5.10;;;4.57;;
3081;SDS011;1551;51.046;7.010;2022-09-13T18:50:23;8.37;;;5.10;;
3081;SDS011;1551;51.046;7.010;2022-09-13T18:53:11;9.65;;;5.25;;
3081;SDS011;1551;51.046;7.010;2022-09-13T18:56:05;7.20;;;6.50;;
3081;SDS011;1551;51.046;7.010;2022-09-13T18:58:57;5.50;;;4.90;;
3081;SDS011;1551;51.046;7.010;2022-09-13T19:01:47;5.25;;;4.40;;
3081;SDS011;1551;51.046;7.010;2022-09-13T19:04:36;8.18;;;4.82;;
3081;SDS011;1551;51.046;7.010;2022-09-13T19:07:25;5.55;;;4.90;;
3081;SDS011;1551;51.046;7.010;2022-09-13T19:10:14;7.30;;;4.80;;
3081;SDS011;1551;51.046;7.010;2022-09-13T19:13:03;7.00;;;5.50;;
3081;SDS011;1551;51.046;7.010;2022-09-13T19:15:56;5.90;;;4.53;;
3081;SDS011;1551;51.046;7.010;2022-09-13T19:18:47;5.60;;;4.88;;
3081;SDS011;1551;51.046;7.010;2022-09-13T19:21:39;6.82;;;4.70;;
3081;SDS011;1551;51.046;7.010;2022-09-13T19:24:29;7.60;;;5.05;;
3081;SDS011;1551;51.046;7.010;2022-09-13T19:27:18;5.43;;;4.50;;
3081;SDS011;1551;51.046;7.010;2022-09-13T19:30:07;6.10;;;5.00;;
3081;SDS011;1551;51.046;7.010;2022-09-13T19:32:57;6.15;;;4.60;;
3081;SDS011;1551;51.046;7.010;2022-09-13T19:35:46;7.47;;;5.10;;
3081;SDS011;1551;51.046;7.010;2022-09-13T19:38:35;7.80;;;5.25;;
3081;SDS011;1551;51.046;7.010;2022-09-13T19:41:26;5.55;;;3.40;;
3081;SDS011;1551;51.046;7.010;2022-09-13T19:44:17;4.70;;;2.80;;
3081;SDS011;1551;51.046;7.010;2022-09-13T19:47:07;4.55;;;2.45;;
3081;SDS011;1551;51.046;7.010;2022-09-13T19:49:57;4.60;;;3.10;;
3081;SDS011;1551;51.046;7.010;2022-09-13T19:52:46;5.88;;;4.90;;
3081;SDS011;1551;51.046;7.010;2022-09-13T19:55:41;8.23;;;4.88;;
3081;SDS011;1551;51.046;7.010;2022-09-13T19:58:32;4.65;;;3.90;;
3081;SDS011;1551;51.046;7.010;2022-09-13T20:01:23;7.93;;;5.50;;
3081;SDS011;1551;51.046;7.010;2022-09-13T20:04:15;4.23;;;3.50;;
3081;SDS011;1551;51.046;7.010;2022-09-13T20:07:06;4.97;;;3.63;;
3081;SDS011;1551;51.046;7.010;2022-09-13T20:09:59;5.68;;;3.85;;
3081;SDS011;1551;51.046;7.010;2022-09-13T20:12:49;6.88;;;4.82;;
3081;SDS011;1551;51.046;7.010;2022-09-13T20:15:42;4.78;;;4.22;;
3081;SDS011;1551;51.046;7.010;2022-09-13T20:18:30;6.80;;;4.55;;
3081;SDS011;1551;51.046;7.010;2022-09-13T20:21:19;8.02;;;4.18;;
3081;SDS011;1551;51.046;7.010;2022-09-13T20:24:08;7.15;;;5.00;;
3081;SDS011;1551;51.046;7.010;2022-09-13T20:26:57;6.50;;;5.60;;
3081;SDS011;1551;51.046;7.010;2022-09-13T20:29:46;5.33;;;4.60;;
3081;SDS011;1551;51.046;7.010;2022-09-13T20:32:35;7.70;;;5.33;;
3081;SDS011;1551;51.046;7.010;2022-09-13T20:35:24;8.00;;;5.65;;
3081;SDS011;1551;51.046;7.010;2022-09-13T20:38:13;7.20;;;4.63;;
3081;SDS011;1551;51.046;7.010;2022-09-13T20:41:02;6.95;;;5.65;;
3081;SDS011;1551;51.046;7.010;2022-09-13T20:43:57;7.65;;;5.40;;
3081;SDS011;1551;51.046;7.010;2022-09-13T20:46:47;8.57;;;6.20;;
3081;SDS011;1551;51.046;7.010;2022-09-13T20:49:36;5.75;;;4.85;;
3081;SDS011;1551;51.046;7.010;2022-09-13T20:52:25;6.35;;;5.15;;